createdAt,value
2018-04-30T00:02:30.622Z,14.90
2018-04-30T00:05:04.192Z,14.50
2018-04-30T00:07:37.722Z,14.40
2018-04-30T00:10:11.285Z,14.60
2018-04-30T00:12:44.858Z,14.70
2018-04-30T00:15:18.421Z,13.90
2018-04-30T00:17:51.996Z,14.20
2018-04-30T00:20:25.524Z,14.20
2018-04-30T00:22:59.047Z,14.00
2018-04-30T00:25:32.597Z,13.90
2018-04-30T00:28:06.302Z,13.10
2018-04-30T00:30:40.648Z,13.80
2018-04-30T00:33:14.339Z,13.80
2018-04-30T00:35:47.910Z,14.10
2018-04-30T00:38:21.563Z,14.20
2018-04-30T00:40:55.140Z,14.30
2018-04-30T00:43:28.733Z,14.40
2018-04-30T00:46:02.254Z,14.40
2018-04-30T00:48:35.827Z,14.40
2018-04-30T00:51:09.373Z,14.30
2018-04-30T00:53:42.920Z,14.40
2018-04-30T00:56:16.536Z,14.50
2018-04-30T00:58:50.055Z,14.50
2018-04-30T01:01:23.657Z,14.60
2018-04-30T01:03:57.249Z,14.40
2018-04-30T01:06:30.843Z,14.30
2018-04-30T01:09:04.447Z,14.30
2018-04-30T01:11:38.038Z,14.50
2018-04-30T01:14:11.809Z,14.60
2018-04-30T01:16:46.260Z,14.60
2018-04-30T01:19:20.688Z,14.20
2018-04-30T01:21:54.355Z,14.20
2018-04-30T01:24:27.981Z,14.20
2018-04-30T01:27:01.492Z,14.20
2018-04-30T01:29:35.026Z,14.10
2018-04-30T01:32:08.628Z,14.10
2018-04-30T01:34:42.182Z,14.10
2018-04-30T01:37:15.767Z,14.20
2018-04-30T01:39:49.321Z,14.30
2018-04-30T01:42:22.873Z,14.30
2018-04-30T01:44:56.423Z,14.30
2018-04-30T01:47:30.077Z,14.40
2018-04-30T01:50:03.659Z,14.40
2018-04-30T01:52:37.208Z,13.40
2018-04-30T01:55:10.778Z,13.50
2018-04-30T01:57:44.364Z,13.70
2018-04-30T02:00:17.909Z,13.80
2018-04-30T02:02:51.466Z,13.90
2018-04-30T02:05:25.036Z,14.10
2018-04-30T02:07:58.678Z,14.20
2018-04-30T02:10:33.000Z,14.40
2018-04-30T02:13:07.417Z,14.30
2018-04-30T02:15:41.092Z,14.30
2018-04-30T02:18:14.701Z,13.60
2018-04-30T02:20:49.053Z,12.70
2018-04-30T02:23:22.644Z,12.70
2018-04-30T02:25:56.189Z,13.00
2018-04-30T02:28:29.759Z,13.30
2018-04-30T02:31:03.351Z,13.60
2018-04-30T02:33:36.987Z,13.80
2018-04-30T02:36:10.641Z,14.00
2018-04-30T02:38:44.173Z,14.10
2018-04-30T02:41:17.742Z,14.20
2018-04-30T02:43:51.331Z,14.40
2018-04-30T02:46:24.935Z,14.30
2018-04-30T02:48:58.509Z,14.20
2018-04-30T02:51:32.165Z,14.40
2018-04-30T02:54:05.775Z,14.50
2018-04-30T02:56:39.640Z,14.50
2018-04-30T02:59:13.255Z,14.20
2018-04-30T03:01:46.845Z,14.00
2018-04-30T03:04:20.373Z,13.20
2018-04-30T03:06:53.925Z,14.10
2018-04-30T03:09:27.546Z,14.90
2018-04-30T03:12:01.080Z,15.00
2018-04-30T03:14:34.657Z,15.00
2018-04-30T03:17:08.268Z,15.00
2018-04-30T03:19:41.874Z,15.10
2018-04-30T03:22:15.458Z,14.90
2018-04-30T03:24:49.058Z,14.90
2018-04-30T03:27:22.611Z,14.80
2018-04-30T03:29:56.884Z,14.50
2018-04-30T03:32:30.656Z,14.50
2018-04-30T03:35:04.167Z,14.50
2018-04-30T03:37:38.600Z,14.40
2018-04-30T03:40:12.217Z,14.40
2018-04-30T03:42:45.790Z,14.40
2018-04-30T03:45:19.326Z,14.20
2018-04-30T03:47:52.884Z,14.20
2018-04-30T03:50:26.393Z,13.70
2018-04-30T03:53:00.061Z,13.40
2018-04-30T03:55:33.647Z,13.30
2018-04-30T03:58:07.295Z,13.20
2018-04-30T04:00:52.768Z,12.90
2018-04-30T04:03:38.293Z,12.80
2018-04-30T04:06:23.864Z,12.70
2018-04-30T04:08:57.460Z,12.70
2018-04-30T04:11:31.033Z,12.70
2018-04-30T04:14:04.515Z,12.40
2018-04-30T04:16:38.060Z,12.00
2018-04-30T04:19:11.623Z,11.90
2018-04-30T04:21:45.156Z,11.80
2018-04-30T04:24:19.551Z,11.60
2018-04-30T04:26:54.427Z,11.50
2018-04-30T04:29:27.986Z,11.50
2018-04-30T04:32:02.309Z,11.30
2018-04-30T04:34:36.020Z,11.30
2018-04-30T04:37:09.548Z,11.30
2018-04-30T04:39:43.083Z,10.90
2018-04-30T04:42:16.685Z,10.80
2018-04-30T04:44:50.242Z,10.70
2018-04-30T04:47:24.600Z,10.50
2018-04-30T04:49:58.104Z,10.50
2018-04-30T04:52:31.719Z,10.40
2018-04-30T04:55:05.281Z,10.30
2018-04-30T04:57:38.828Z,10.10
2018-04-30T05:00:12.407Z,10.10
2018-04-30T05:02:46.013Z,9.80
2018-04-30T05:05:19.612Z,9.60
2018-04-30T05:07:53.227Z,9.60
2018-04-30T05:10:26.752Z,9.40
2018-04-30T05:13:00.302Z,9.50
2018-04-30T05:15:33.908Z,9.60
2018-04-30T05:18:07.521Z,9.50
2018-04-30T05:20:41.049Z,9.40
2018-04-30T05:23:14.719Z,9.40
2018-04-30T05:25:48.285Z,9.40
2018-04-30T05:28:25.355Z,9.40
2018-04-30T05:30:58.952Z,9.50
2018-04-30T05:33:32.481Z,9.40
2018-04-30T05:36:06.097Z,9.50
2018-04-30T05:38:39.776Z,9.60
2018-04-30T05:41:13.287Z,9.70
2018-04-30T05:43:46.926Z,9.60
2018-04-30T05:46:20.504Z,9.70
2018-04-30T05:48:54.841Z,9.40
2018-04-30T05:51:28.473Z,9.40
2018-04-30T05:54:02.144Z,9.40
2018-04-30T05:56:35.697Z,9.70
2018-04-30T05:59:09.263Z,10.00
2018-04-30T06:01:42.853Z,10.20
2018-04-30T06:04:16.417Z,10.10
2018-04-30T06:06:50.066Z,10.30
2018-04-30T06:09:24.447Z,9.50
2018-04-30T06:11:58.214Z,9.50
2018-04-30T06:14:31.750Z,9.80
2018-04-30T06:17:05.379Z,10.00
2018-04-30T06:19:38.920Z,10.10
2018-04-30T06:22:12.480Z,10.40
2018-04-30T06:24:46.072Z,10.50
2018-04-30T06:27:20.570Z,10.50
2018-04-30T06:29:54.225Z,10.70
2018-04-30T06:32:27.970Z,10.80
2018-04-30T06:35:01.695Z,10.90
2018-04-30T06:37:36.023Z,10.20
2018-04-30T06:40:09.617Z,10.20
2018-04-30T06:42:43.133Z,10.40
2018-04-30T06:45:16.790Z,10.60
2018-04-30T06:47:50.388Z,10.80
2018-04-30T06:50:23.900Z,11.00
2018-04-30T06:52:57.490Z,10.20
2018-04-30T06:55:31.043Z,10.50
2018-04-30T06:58:04.626Z,10.60
2018-04-30T07:00:38.317Z,10.40
2018-04-30T07:03:11.943Z,9.90
2018-04-30T07:05:45.507Z,10.10
2018-04-30T07:08:19.045Z,10.40
2018-04-30T07:10:52.536Z,10.60
2018-04-30T07:13:26.130Z,10.00
2018-04-30T07:15:59.692Z,9.80
2018-04-30T07:18:33.234Z,10.20
2018-04-30T07:21:07.723Z,10.80
2018-04-30T07:23:41.425Z,10.80
2018-04-30T07:26:14.953Z,10.90
2018-04-30T07:28:48.527Z,10.20
2018-04-30T07:31:22.092Z,10.40
2018-04-30T07:33:55.717Z,10.50
2018-04-30T07:36:29.328Z,10.80
2018-04-30T07:39:02.909Z,11.20
2018-04-30T07:41:36.535Z,11.40
2018-04-30T07:44:10.135Z,11.30
2018-04-30T07:46:43.748Z,11.30
2018-04-30T07:49:17.457Z,11.50
2018-04-30T07:51:51.756Z,11.50
2018-04-30T07:54:25.351Z,11.50
2018-04-30T07:56:58.895Z,10.70
2018-04-30T07:59:32.458Z,11.10
2018-04-30T08:02:06.771Z,11.90
2018-04-30T08:04:41.079Z,11.90
2018-04-30T08:07:14.709Z,11.80
2018-04-30T08:09:48.273Z,12.10
2018-04-30T08:12:22.624Z,12.00
2018-04-30T08:14:56.482Z,12.00
2018-04-30T08:17:29.984Z,12.10
2018-04-30T08:20:04.326Z,13.00
2018-04-30T08:22:38.064Z,13.00
2018-04-30T08:25:11.638Z,13.10
2018-04-30T08:27:45.972Z,13.10
2018-04-30T08:30:19.460Z,13.10
2018-04-30T08:32:53.064Z,13.10
2018-04-30T08:35:26.646Z,13.40
2018-04-30T08:38:00.255Z,13.30
2018-04-30T08:40:33.851Z,13.20
2018-04-30T08:43:07.431Z,13.30
2018-04-30T08:45:41.108Z,12.90
2018-04-30T08:48:15.472Z,12.80
2018-04-30T08:50:49.207Z,12.80
2018-04-30T08:53:23.554Z,13.40
2018-04-30T08:55:57.211Z,13.40
2018-04-30T08:58:30.781Z,13.60
2018-04-30T09:01:04.342Z,13.50
2018-04-30T09:03:37.881Z,13.80
2018-04-30T09:06:12.220Z,14.10
2018-04-30T09:08:45.712Z,14.10
2018-04-30T09:11:19.323Z,14.20
2018-04-30T09:13:52.898Z,14.40
2018-04-30T09:16:26.524Z,14.40
2018-04-30T09:19:00.442Z,14.40
2018-04-30T09:21:34.100Z,14.50
2018-04-30T09:24:07.646Z,14.70
2018-04-30T09:26:41.224Z,14.90
2018-04-30T09:29:15.544Z,15.40
2018-04-30T09:31:49.275Z,15.40
2018-04-30T09:34:22.788Z,15.70
2018-04-30T09:36:56.489Z,15.90
2018-04-30T09:39:31.076Z,15.70
2018-04-30T09:42:04.823Z,15.70
2018-04-30T09:44:38.328Z,15.90
2018-04-30T09:47:11.880Z,15.90
2018-04-30T09:49:45.564Z,15.50
2018-04-30T09:52:19.293Z,15.60
2018-04-30T09:54:53.088Z,15.80
2018-04-30T09:57:27.631Z,15.60
2018-04-30T10:00:01.217Z,15.50
2018-04-30T10:02:34.758Z,15.30
2018-04-30T10:05:08.313Z,14.90
2018-04-30T10:07:41.889Z,15.20
2018-04-30T10:10:15.422Z,15.40
2018-04-30T10:12:49.013Z,15.40
2018-04-30T10:15:23.335Z,15.80
2018-04-30T10:17:57.047Z,15.80
2018-04-30T10:20:30.627Z,15.70
2018-04-30T10:23:04.163Z,16.00
2018-04-30T10:25:37.744Z,16.40
2018-04-30T10:28:11.349Z,16.70
2018-04-30T10:30:45.656Z,16.80
2018-04-30T10:33:20.118Z,16.70
2018-04-30T10:35:54.589Z,16.70
2018-04-30T10:38:28.336Z,16.60
2018-04-30T10:41:01.835Z,16.80
2018-04-30T10:43:36.125Z,17.10
2018-04-30T10:46:09.642Z,17.10
2018-04-30T10:48:43.288Z,17.00
2018-04-30T10:51:16.866Z,17.10
2018-04-30T10:53:50.508Z,17.20
2018-04-30T10:56:24.831Z,17.10
2018-04-30T10:58:58.528Z,17.10
2018-04-30T11:01:32.239Z,17.20
2018-04-30T11:04:05.767Z,17.30
2018-04-30T11:06:39.432Z,17.40
2018-04-30T11:09:13.034Z,17.40
2018-04-30T11:11:46.547Z,17.50
2018-04-30T11:14:20.156Z,17.50
2018-04-30T11:16:53.750Z,17.20
2018-04-30T11:19:27.348Z,17.20
2018-04-30T11:22:00.884Z,16.90
2018-04-30T11:24:34.540Z,16.80
2018-04-30T11:27:08.136Z,16.90
2018-04-30T11:29:41.739Z,17.30
2018-04-30T11:32:15.342Z,17.50
2018-04-30T11:34:48.947Z,17.40
2018-04-30T11:37:22.541Z,17.30
2018-04-30T11:39:56.184Z,17.10
2018-04-30T11:42:30.460Z,16.70
2018-04-30T11:45:04.892Z,16.70
2018-04-30T11:47:38.549Z,16.70
2018-04-30T11:50:12.203Z,16.80
2018-04-30T11:52:45.790Z,17.10
2018-04-30T11:55:20.103Z,17.40
2018-04-30T11:57:54.527Z,17.20
2018-04-30T12:00:28.252Z,17.10
2018-04-30T12:03:01.768Z,17.00
2018-04-30T12:05:35.357Z,16.90
2018-04-30T12:08:08.897Z,17.20
2018-04-30T12:10:42.407Z,17.60
2018-04-30T12:13:15.936Z,17.60
2018-04-30T12:15:49.536Z,17.70
2018-04-30T12:18:23.065Z,17.70
2018-04-30T12:20:56.599Z,17.80
2018-04-30T12:23:30.945Z,17.60
2018-04-30T12:26:04.505Z,17.60
2018-04-30T12:28:38.076Z,17.50
2018-04-30T12:31:11.645Z,17.30
2018-04-30T12:33:45.255Z,17.30
2018-04-30T12:36:18.833Z,17.80
2018-04-30T12:38:52.395Z,18.00
2018-04-30T12:41:26.090Z,18.00
2018-04-30T12:43:59.632Z,18.00
2018-04-30T12:46:33.150Z,17.50
2018-04-30T12:49:06.840Z,17.50
2018-04-30T12:51:40.436Z,17.80
2018-04-30T12:54:14.056Z,17.80
2018-04-30T12:56:47.831Z,18.20
2018-04-30T12:59:21.375Z,18.20
2018-04-30T13:01:55.667Z,18.30
2018-04-30T13:04:29.215Z,18.30
2018-04-30T13:07:02.775Z,18.40
2018-04-30T13:09:37.098Z,18.00
2018-04-30T13:12:10.824Z,18.00
2018-04-30T13:14:44.368Z,18.00
2018-04-30T13:17:17.898Z,18.10
2018-04-30T13:19:51.468Z,18.30
2018-04-30T13:22:24.969Z,18.60
2018-04-30T13:24:58.588Z,18.80
2018-04-30T13:27:32.129Z,18.80
2018-04-30T13:30:06.404Z,18.00
2018-04-30T13:32:40.931Z,18.30
2018-04-30T13:35:14.425Z,18.20
2018-04-30T13:37:48.728Z,18.30
2018-04-30T13:40:22.612Z,18.30
2018-04-30T13:42:56.265Z,18.40
2018-04-30T13:45:30.564Z,18.30
2018-04-30T13:48:04.352Z,18.30
2018-04-30T13:50:38.107Z,18.50
2018-04-30T13:53:11.777Z,18.80
2018-04-30T13:55:45.523Z,18.80
2018-04-30T13:58:19.149Z,18.80
2018-04-30T14:00:52.740Z,18.80
2018-04-30T14:03:26.317Z,19.00
2018-04-30T14:05:59.880Z,18.90
2018-04-30T14:08:33.474Z,18.60
2018-04-30T14:11:07.095Z,18.50
2018-04-30T14:13:40.673Z,18.20
2018-04-30T14:16:14.184Z,18.40
2018-04-30T14:18:47.758Z,18.70
2018-04-30T14:21:21.301Z,18.80
2018-04-30T14:23:54.880Z,18.80
2018-04-30T14:26:28.457Z,18.80
2018-04-30T14:29:02.078Z,18.70
2018-04-30T14:31:35.605Z,18.70
2018-04-30T14:34:09.095Z,18.50
2018-04-30T14:36:42.612Z,18.60
2018-04-30T14:39:16.195Z,18.80
2018-04-30T14:41:49.731Z,19.00
2018-04-30T14:44:23.410Z,19.00
2018-04-30T14:46:57.003Z,18.90
2018-04-30T14:49:30.656Z,19.10
2018-04-30T14:52:04.256Z,18.80
2018-04-30T14:54:37.808Z,19.10
2018-04-30T14:57:11.319Z,19.20
2018-04-30T14:59:44.901Z,19.20
2018-04-30T15:02:18.480Z,18.90
2018-04-30T15:04:52.043Z,18.70
2018-04-30T15:07:25.668Z,18.70
2018-04-30T15:09:59.184Z,18.70
2018-04-30T15:12:32.736Z,18.60
2018-04-30T15:15:06.274Z,18.80
2018-04-30T15:17:39.848Z,18.70
2018-04-30T15:20:13.399Z,18.70
2018-04-30T15:22:46.940Z,18.50
2018-04-30T15:25:20.528Z,18.40
2018-04-30T15:27:54.175Z,18.40
2018-04-30T15:30:27.839Z,18.40
2018-04-30T15:33:01.396Z,18.40
2018-04-30T15:35:34.987Z,18.20
2018-04-30T15:38:08.497Z,18.10
2018-04-30T15:40:42.035Z,18.00
2018-04-30T15:43:15.719Z,18.00
2018-04-30T15:45:49.287Z,17.90
2018-04-30T15:48:22.820Z,18.00
2018-04-30T15:50:57.214Z,18.20
2018-04-30T15:53:31.622Z,18.20
2018-04-30T15:56:05.300Z,18.20
2018-04-30T15:58:38.911Z,18.10
2018-04-30T16:01:12.447Z,17.90
2018-04-30T16:03:45.956Z,17.90
2018-04-30T16:06:20.254Z,17.80
2018-04-30T16:08:53.980Z,17.70
2018-04-30T16:11:27.532Z,17.70
2018-04-30T16:14:01.193Z,17.60
2018-04-30T16:16:34.868Z,17.70
2018-04-30T16:19:08.467Z,17.80
2018-04-30T16:21:42.035Z,17.80
2018-04-30T16:24:15.665Z,18.00
2018-04-30T16:26:50.167Z,18.00
2018-04-30T16:29:23.902Z,18.00
2018-04-30T16:31:57.453Z,18.00
2018-04-30T16:34:30.992Z,18.10
2018-04-30T16:37:04.541Z,18.20
2018-04-30T16:39:38.073Z,18.20
2018-04-30T16:42:11.645Z,18.20
2018-04-30T16:44:45.252Z,18.50
2018-04-30T16:47:18.795Z,19.30
2018-04-30T16:49:53.112Z,21.40
2018-04-30T16:52:26.814Z,21.40
2018-04-30T16:55:01.309Z,22.80
2018-04-30T16:57:34.912Z,22.80
2018-04-30T17:00:08.527Z,22.40
2018-04-30T17:02:42.080Z,22.10
2018-04-30T17:05:15.660Z,21.60
2018-04-30T17:07:50.035Z,20.80
2018-04-30T17:10:24.372Z,20.40
2018-04-30T17:12:58.772Z,20.20
2018-04-30T17:15:33.211Z,20.00
2018-04-30T17:18:06.825Z,20.00
2018-04-30T17:20:41.032Z,19.70
2018-04-30T17:23:14.837Z,19.50
2018-04-30T17:25:48.546Z,19.30
2018-04-30T17:28:22.838Z,19.00
2018-04-30T17:30:56.538Z,19.00
2018-04-30T17:33:30.018Z,18.90
2018-04-30T17:36:03.640Z,18.80
2018-04-30T17:38:37.306Z,18.70
2018-04-30T17:41:11.787Z,18.60
2018-04-30T17:43:45.450Z,18.50
2018-04-30T17:46:18.987Z,18.40
2018-04-30T17:48:52.504Z,18.20
2018-04-30T17:51:26.178Z,18.10
2018-04-30T17:53:59.871Z,18.00
2018-04-30T17:56:33.407Z,17.90
2018-04-30T17:59:06.982Z,17.70
2018-04-30T18:01:40.554Z,17.60
2018-04-30T18:04:14.126Z,17.50
2018-04-30T18:06:47.734Z,17.30
2018-04-30T18:09:21.985Z,17.20
2018-04-30T18:11:55.580Z,17.10
2018-04-30T18:14:29.175Z,17.00
2018-04-30T18:17:02.703Z,17.10
2018-04-30T18:19:36.203Z,17.10
2018-04-30T18:22:10.474Z,16.90
2018-04-30T18:24:44.164Z,16.90
2018-04-30T18:27:17.794Z,16.70
2018-04-30T18:29:51.322Z,16.60
2018-04-30T18:32:24.924Z,16.60
2018-04-30T18:34:58.476Z,16.50
2018-04-30T18:37:32.092Z,16.30
2018-04-30T18:40:05.670Z,16.10
2018-04-30T18:42:39.203Z,15.70
2018-04-30T18:45:13.613Z,15.30
2018-04-30T18:47:47.345Z,15.00
2018-04-30T18:50:20.916Z,15.00
2018-04-30T18:52:55.233Z,14.60
2018-04-30T18:55:28.914Z,14.50
2018-04-30T18:58:03.422Z,14.20
2018-04-30T19:00:36.991Z,14.20
2018-04-30T19:03:10.716Z,14.00
2018-04-30T19:05:45.043Z,13.90
2018-04-30T19:08:18.672Z,13.90
2018-04-30T19:10:52.260Z,13.80
2018-04-30T19:13:25.923Z,13.60
2018-04-30T19:15:59.667Z,13.50
2018-04-30T19:18:33.399Z,13.40
2018-04-30T19:21:06.997Z,13.40
2018-04-30T19:23:40.590Z,13.20
2018-04-30T19:26:14.134Z,13.20
2018-04-30T19:28:47.681Z,13.30
2018-04-30T19:31:21.345Z,13.40
2018-04-30T19:33:54.814Z,13.40
2018-04-30T19:36:28.401Z,13.50
2018-04-30T19:39:01.999Z,13.60
2018-04-30T19:41:36.288Z,13.40
2018-04-30T19:44:09.841Z,13.20
2018-04-30T19:46:43.528Z,13.30
2018-04-30T19:49:16.940Z,13.50
2018-04-30T19:51:50.503Z,13.50
2018-04-30T19:54:24.827Z,13.50
2018-04-30T19:56:58.525Z,13.50
2018-04-30T19:59:32.097Z,13.50
2018-04-30T20:02:05.649Z,13.40
2018-04-30T20:04:39.355Z,13.40
2018-04-30T20:07:12.884Z,13.40
2018-04-30T20:09:47.153Z,13.20
2018-04-30T20:12:21.581Z,13.20
2018-04-30T20:14:55.288Z,13.20
2018-04-30T20:17:29.578Z,13.30
2018-04-30T20:20:03.177Z,13.30
2018-04-30T20:22:36.708Z,13.30
2018-04-30T20:25:10.281Z,13.30
2018-04-30T20:27:44.610Z,13.20
2018-04-30T20:30:18.272Z,13.20
2018-04-30T20:32:51.820Z,13.20
2018-04-30T20:35:25.404Z,13.20
2018-04-30T20:37:58.990Z,13.20
2018-04-30T20:40:32.583Z,13.20
2018-04-30T20:43:06.137Z,13.10
2018-04-30T20:45:39.726Z,13.20
2018-04-30T20:48:13.236Z,13.20
2018-04-30T20:50:47.529Z,13.20
2018-04-30T20:53:21.152Z,13.20
2018-04-30T20:55:54.707Z,13.30
2018-04-30T20:58:28.291Z,13.30
2018-04-30T21:01:02.842Z,13.10
2018-04-30T21:03:36.569Z,13.10
2018-04-30T21:06:10.128Z,12.10
2018-04-30T21:08:55.563Z,12.40
2018-04-30T21:11:29.147Z,12.50
2018-04-30T21:14:02.829Z,12.40
2018-04-30T21:16:36.411Z,12.40
2018-04-30T21:19:10.021Z,12.50
2018-04-30T21:21:43.561Z,12.60
2018-04-30T21:24:18.111Z,12.20
2018-04-30T21:26:51.628Z,12.10
2018-04-30T21:29:25.232Z,12.20
2018-04-30T21:31:58.865Z,12.40
2018-04-30T21:34:32.408Z,12.50
2018-04-30T21:37:05.919Z,12.60
2018-04-30T21:39:39.467Z,12.60
2018-04-30T21:42:13.051Z,12.70
2018-04-30T21:44:46.830Z,12.80
2018-04-30T21:47:20.401Z,12.90
2018-04-30T21:49:54.051Z,12.90
2018-04-30T21:52:27.566Z,12.90
2018-04-30T21:55:02.878Z,12.80
2018-04-30T21:57:36.471Z,12.80
2018-04-30T22:00:10.116Z,12.80
2018-04-30T22:02:43.704Z,12.90
2018-04-30T22:05:17.288Z,12.90
2018-04-30T22:07:50.898Z,12.90
2018-04-30T22:10:24.701Z,13.00
2018-04-30T22:12:58.616Z,12.90
2018-04-30T22:15:32.453Z,12.80
2018-04-30T22:18:06.228Z,12.70
2018-04-30T22:20:39.749Z,12.70
2018-04-30T22:23:13.361Z,12.70
2018-04-30T22:25:46.855Z,12.70
2018-04-30T22:28:20.455Z,12.80
2018-04-30T22:30:54.028Z,12.70
2018-04-30T22:33:27.537Z,12.60
2018-04-30T22:36:01.059Z,12.60
2018-04-30T22:38:34.593Z,12.60
2018-04-30T22:41:08.234Z,12.60
2018-04-30T22:43:41.813Z,12.70
2018-04-30T22:46:16.182Z,12.80
2018-04-30T22:48:50.548Z,12.70
2018-04-30T22:51:24.138Z,12.70
2018-04-30T22:53:57.673Z,12.60
2018-04-30T22:56:31.250Z,12.10
2018-04-30T22:59:04.767Z,11.90
2018-04-30T23:01:38.372Z,11.80
2018-04-30T23:04:11.991Z,11.80
2018-04-30T23:06:45.559Z,11.90
2018-04-30T23:09:19.870Z,12.10
2018-04-30T23:11:54.178Z,12.10
2018-04-30T23:14:27.908Z,12.10
2018-04-30T23:17:01.433Z,12.10
2018-04-30T23:19:34.992Z,12.00
2018-04-30T23:22:08.561Z,12.10
2018-04-30T23:24:42.133Z,12.20
2018-04-30T23:27:15.612Z,12.20
2018-04-30T23:29:49.190Z,12.20
2018-04-30T23:32:22.760Z,12.10
2018-04-30T23:34:56.299Z,12.10
2018-04-30T23:37:29.935Z,12.10
2018-04-30T23:40:03.454Z,12.20
2018-04-30T23:42:37.029Z,12.30
2018-04-30T23:45:10.557Z,12.30
2018-04-30T23:47:44.191Z,12.30
2018-04-30T23:50:17.770Z,12.30
2018-04-30T23:52:52.112Z,12.10
2018-04-30T23:55:26.798Z,12.00
2018-04-30T23:58:00.413Z,12.00
